Time;durP1;ratioP1;P1;durP2;ratioP2;P2;SDS_P1;SDS_P2;PMS_P1;PMS_P2;Temp;Humidity;BMP_temperature;BMP_pressure;BME280_temperature;BME280_humidity;BME280_pressure;Samples;Min_cycle;Max_cycle;Signal;HPM_P1;HPM_P2
2022/05/23 00:00:22;;;;;;;7.07;2.70;;;16.40;99.90;;;;;;5090421;28;20133;-68
2022/05/23 00:02:48;;;;;;;7.67;2.73;;;16.40;99.90;;;;;;5101599;28;20043;-68
2022/05/23 00:05:15;;;;;;;5.82;2.55;;;16.40;99.90;;;;;;5070043;28;20077;-67
2022/05/23 00:07:44;;;;;;;7.28;2.47;;;16.30;99.90;;;;;;5084573;28;20090;-67
2022/05/23 00:10:16;;;;;;;4.57;1.90;;;16.30;99.90;;;;;;5093843;28;20085;-67
2022/05/23 00:12:43;;;;;;;5.13;2.38;;;16.30;99.90;;;;;;5095692;28;20044;-69
2022/05/23 00:15:11;;;;;;;6.22;2.60;;;16.30;99.90;;;;;;5090383;28;20052;-68
2022/05/23 00:17:36;;;;;;;6.00;2.60;;;16.20;99.90;;;;;;5102444;28;20424;-67
2022/05/23 00:20:07;;;;;;;6.70;2.70;;;16.20;99.90;;;;;;5090117;28;20036;-67
2022/05/23 00:22:33;;;;;;;7.70;2.45;;;16.20;99.90;;;;;;5110247;28;20047;-67
2022/05/23 00:24:58;;;;;;;8.65;3.00;;;16.20;99.90;;;;;;5071284;28;20045;-67
2022/05/23 00:27:24;;;;;;;5.32;2.30;;;16.20;99.90;;;;;;5088814;28;20604;-67
2022/05/23 00:29:51;;;;;;;7.07;2.45;;;16.20;99.90;;;;;;5089911;28;20453;-67
2022/05/23 00:35:19;;;;;;;6.07;2.60;;;16.10;99.90;;;;;;5088654;28;20531;-67
2022/05/23 00:37:53;;;;;;;6.78;2.60;;;16.10;99.90;;;;;;5091023;28;20044;-67
2022/05/23 00:40:30;;;;;;;6.55;2.60;;;16.00;99.90;;;;;;5110904;28;20082;-68
2022/05/23 00:43:13;;;;;;;5.80;2.35;;;16.00;99.90;;;;;;5109630;28;20076;-67
2022/05/23 00:45:50;;;;;;;6.68;2.90;;;16.00;99.90;;;;;;5110777;28;20375;-67
2022/05/23 00:48:20;;;;;;;5.97;2.70;;;15.90;99.90;;;;;;5102507;28;20044;-67
2022/05/23 00:51:07;;;;;;;6.20;2.53;;;15.90;99.90;;;;;;5093954;28;20036;-67
2022/05/23 00:53:56;;;;;;;7.35;2.50;;;15.90;99.90;;;;;;5108833;28;20059;-67
2022/05/23 00:56:26;;;;;;;6.53;2.50;;;15.80;99.90;;;;;;5100460;28;20184;-67
2022/05/23 00:58:55;;;;;;;7.18;2.60;;;15.80;99.90;;;;;;5110417;28;20544;-67
2022/05/23 01:01:27;;;;;;;5.82;2.90;;;15.80;99.90;;;;;;5098940;28;20372;-67
2022/05/23 01:03:53;;;;;;;5.65;2.50;;;15.80;99.90;;;;;;5089451;28;20059;-67
2022/05/23 01:06:19;;;;;;;5.75;2.22;;;15.80;99.90;;;;;;5090502;28;20058;-67
2022/05/23 01:08:46;;;;;;;5.82;2.53;;;15.70;99.90;;;;;;5090247;28;20046;-67
2022/05/23 01:11:13;;;;;;;5.22;2.30;;;15.70;99.90;;;;;;5093981;28;20051;-67
2022/05/23 01:13:38;;;;;;;6.63;2.22;;;15.70;99.90;;;;;;5110092;28;20536;-67
2022/05/23 01:16:05;;;;;;;5.07;2.35;;;15.60;99.90;;;;;;5107678;28;20039;-67
2022/05/23 01:18:31;;;;;;;4.78;2.13;;;15.60;99.90;;;;;;5109643;28;20043;-67
2022/05/23 01:21:00;;;;;;;4.30;2.20;;;15.60;99.90;;;;;;5106125;28;20040;-67
2022/05/23 01:23:41;;;;;;;5.45;2.30;;;15.60;99.90;;;;;;5109590;28;20566;-67
2022/05/23 01:26:07;;;;;;;4.45;2.05;;;15.60;99.90;;;;;;5107671;28;20083;-67
2022/05/23 01:28:38;;;;;;;5.75;2.13;;;15.50;99.90;;;;;;5107819;28;20120;-67
2022/05/23 01:31:05;;;;;;;6.60;2.50;;;15.50;99.90;;;;;;5110839;28;20512;-67
2022/05/23 01:33:31;;;;;;;5.88;2.25;;;15.50;99.90;;;;;;5110715;28;20506;-67
2022/05/23 01:35:57;;;;;;;6.63;2.40;;;15.50;99.90;;;;;;5090886;28;20044;-67
2022/05/23 01:38:26;;;;;;;4.45;2.10;;;15.50;99.90;;;;;;5090142;28;20052;-67
2022/05/23 01:40:54;;;;;;;5.20;2.57;;;15.50;99.90;;;;;;5090137;28;20036;-67
2022/05/23 01:43:20;;;;;;;5.65;2.22;;;15.50;99.90;;;;;;5088976;28;20044;-67
2022/05/23 01:45:45;;;;;;;4.13;2.00;;;15.50;99.90;;;;;;5102737;28;20108;-67
2022/05/23 01:48:11;;;;;;;4.53;2.10;;;15.50;99.90;;;;;;5106483;28;20051;-68
2022/05/23 01:50:37;;;;;;;3.67;2.05;;;15.50;99.90;;;;;;5109899;28;20082;-67
2022/05/23 01:53:03;;;;;;;5.72;2.20;;;15.50;99.90;;;;;;5109981;28;20103;-67
2022/05/23 01:55:28;;;;;;;4.95;2.25;;;15.50;99.90;;;;;;5104159;28;20540;-67
2022/05/23 01:57:54;;;;;;;4.20;2.45;;;15.50;99.90;;;;;;5109489;28;20048;-67
2022/05/23 02:03:05;;;;;;;4.32;2.22;;;15.40;99.90;;;;;;5109701;28;20118;-67
2022/05/23 02:05:30;;;;;;;4.53;2.40;;;15.40;99.90;;;;;;5108483;28;20163;-67
2022/05/23 02:07:56;;;;;;;4.30;2.20;;;15.40;99.90;;;;;;5110578;28;20084;-68
2022/05/23 02:10:23;;;;;;;5.57;2.42;;;15.40;99.90;;;;;;5107831;28;20100;-67
2022/05/23 02:12:49;;;;;;;6.50;2.53;;;15.40;99.90;;;;;;5110324;28;20090;-67
2022/05/23 02:15:15;;;;;;;7.13;2.75;;;15.40;99.90;;;;;;5106608;28;20052;-67
2022/05/23 02:17:41;;;;;;;5.03;2.75;;;15.40;99.90;;;;;;5091398;28;20039;-67
2022/05/23 02:20:09;;;;;;;8.60;3.13;;;15.40;99.90;;;;;;5104538;28;20046;-67
2022/05/23 02:22:35;;;;;;;6.03;2.75;;;15.40;99.90;;;;;;5108592;28;20392;-67
2022/05/23 02:25:01;;;;;;;5.65;2.70;;;15.40;99.90;;;;;;5108799;28;20482;-68
2022/05/23 02:27:28;;;;;;;7.95;3.17;;;15.40;99.90;;;;;;5105823;28;20442;-67
2022/05/23 02:29:53;;;;;;;6.00;2.90;;;15.40;99.90;;;;;;5089883;28;20044;-67
2022/05/23 02:32:19;;;;;;;9.38;3.20;;;15.40;99.90;;;;;;5086865;28;20071;-67
2022/05/23 02:34:45;;;;;;;5.07;2.85;;;15.40;99.90;;;;;;5103494;28;20035;-67
2022/05/23 02:37:11;;;;;;;6.97;3.20;;;15.40;99.90;;;;;;5106134;28;20305;-67
2022/05/23 02:39:36;;;;;;;5.63;3.00;;;15.40;99.90;;;;;;5108947;28;20189;-67
2022/05/23 02:42:02;;;;;;;6.03;2.78;;;15.40;99.90;;;;;;5109801;28;20515;-67
2022/05/23 02:44:28;;;;;;;6.07;3.15;;;15.40;99.90;;;;;;5109219;28;20048;-67
2022/05/23 02:46:55;;;;;;;6.50;2.97;;;15.30;99.90;;;;;;5109021;28;20046;-67
2022/05/23 02:49:21;;;;;;;6.25;2.92;;;15.30;99.90;;;;;;5087236;28;20048;-67
2022/05/23 02:51:47;;;;;;;6.50;2.75;;;15.30;99.90;;;;;;5095701;28;20043;-67
2022/05/23 02:54:13;;;;;;;6.95;3.03;;;15.30;99.90;;;;;;5093549;28;20673;-67
2022/05/23 02:56:38;;;;;;;5.18;2.75;;;15.30;99.90;;;;;;5093672;28;20189;-67
2022/05/23 02:59:04;;;;;;;7.35;2.78;;;15.30;99.90;;;;;;5109763;28;20067;-67
2022/05/23 03:01:30;;;;;;;5.13;2.50;;;15.30;99.90;;;;;;5113733;27;20050;-67
2022/05/23 03:03:57;;;;;;;4.47;2.53;;;15.30;99.90;;;;;;5116341;28;20608;-67
2022/05/23 03:06:22;;;;;;;5.55;2.70;;;15.30;99.90;;;;;;5101584;28;20130;-67
2022/05/23 03:08:48;;;;;;;8.57;2.63;;;15.30;99.90;;;;;;5116309;28;20043;-67
2022/05/23 03:11:14;;;;;;;6.85;2.60;;;15.30;99.90;;;;;;5116268;28;20052;-67
2022/05/23 03:13:39;;;;;;;8.77;2.95;;;15.30;99.90;;;;;;5092469;28;20480;-67
2022/05/23 03:16:13;;;;;;;6.03;2.97;;;15.30;99.90;;;;;;5105241;28;20489;-67
2022/05/23 03:18:39;;;;;;;5.53;2.72;;;15.30;99.90;;;;;;5112420;27;20052;-67
2022/05/23 03:21:10;;;;;;;6.18;3.17;;;15.30;99.90;;;;;;5114175;28;20042;-67
2022/05/23 03:29:09;;;;;;;4.10;2.60;;;15.30;99.90;;;;;;5095185;28;20055;-67
2022/05/23 03:31:35;;;;;;;6.25;3.33;;;15.30;99.90;;;;;;5095673;28;20056;-67
2022/05/23 03:34:00;;;;;;;5.55;2.78;;;15.20;99.90;;;;;;5094212;28;20096;-67
2022/05/23 03:36:26;;;;;;;6.60;3.03;;;15.20;99.90;;;;;;5094197;28;20102;-67
2022/05/23 03:38:52;;;;;;;7.18;3.10;;;15.20;99.90;;;;;;5105374;28;20487;-67
2022/05/23 03:41:18;;;;;;;6.55;3.13;;;15.20;99.90;;;;;;5114679;28;20066;-67
2022/05/23 03:43:43;;;;;;;4.82;2.75;;;15.20;99.90;;;;;;5116280;27;20073;-67
2022/05/23 03:46:11;;;;;;;7.30;2.80;;;15.20;99.90;;;;;;5107265;28;20043;-67
2022/05/23 03:48:37;;;;;;;7.00;3.17;;;15.20;99.90;;;;;;5094046;28;20044;-67
2022/05/23 03:51:05;;;;;;;5.22;3.00;;;15.20;99.90;;;;;;5094997;28;20470;-68
2022/05/23 03:53:31;;;;;;;5.82;3.40;;;15.10;99.90;;;;;;5111385;28;20679;-67
2022/05/23 03:55:57;;;;;;;7.13;3.55;;;15.10;99.90;;;;;;5113474;28;20055;-69
2022/05/23 03:58:24;;;;;;;8.25;3.63;;;15.20;99.90;;;;;;5115554;27;20058;-69
2022/05/23 04:00:50;;;;;;;6.50;3.33;;;15.10;99.90;;;;;;5115962;27;20470;-69
2022/05/23 04:03:20;;;;;;;5.88;3.22;;;15.20;99.90;;;;;;5090240;28;20051;-69
2022/05/23 04:05:45;;;;;;;5.47;3.15;;;15.20;99.90;;;;;;5101491;28;20050;-69
2022/05/23 04:08:12;;;;;;;9.20;3.83;;;15.20;99.90;;;;;;5103795;28;20040;-69
2022/05/23 04:10:39;;;;;;;8.50;3.53;;;15.20;99.90;;;;;;5111679;28;20104;-69
2022/05/23 04:13:05;;;;;;;;;;;15.20;99.90;;;;;;5110290;28;20440;-70
2022/05/23 04:15:32;;;;;;;8.48;3.65;;;15.20;99.90;;;;;;5110789;28;19919;-69
2022/05/23 04:17:57;;;;;;;5.18;3.70;;;15.20;99.90;;;;;;5107789;28;20088;-69
2022/05/23 04:20:23;;;;;;;7.93;3.78;;;15.20;99.90;;;;;;5094608;28;20032;-70
2022/05/23 04:22:49;;;;;;;6.95;3.72;;;15.20;99.90;;;;;;5106030;28;20051;-69
2022/05/23 04:25:15;;;;;;;11.43;4.10;;;15.20;99.90;;;;;;5094231;28;20048;-69
2022/05/23 04:27:41;;;;;;;7.40;3.85;;;15.20;99.90;;;;;;5109403;28;20050;-69
2022/05/23 04:30:09;;;;;;;7.28;3.65;;;15.20;99.90;;;;;;5110564;28;20040;-70
2022/05/23 04:35:22;;;;;;;9.00;4.32;;;15.20;99.90;;;;;;5088962;28;20076;-70
2022/05/23 04:37:50;;;;;;;7.93;4.32;;;15.20;99.90;;;;;;5088515;28;20075;-69
2022/05/23 04:40:19;;;;;;;11.40;4.25;;;15.20;99.90;;;;;;5091304;28;20039;-68
2022/05/23 04:42:45;;;;;;;10.23;4.57;;;15.20;99.90;;;;;;5108828;28;20054;-70
2022/05/23 04:45:12;;;;;;;12.90;4.60;;;15.20;99.90;;;;;;5106479;28;20386;-69
2022/05/23 04:50:22;;;;;;;10.10;4.47;;;15.20;99.90;;;;;;5111304;28;20223;-70
2022/05/23 04:52:48;;;;;;;8.38;4.30;;;15.30;99.90;;;;;;5094523;28;20182;-69
2022/05/23 04:55:15;;;;;;;11.00;4.40;;;15.30;99.90;;;;;;5088710;28;20921;-67
2022/05/23 04:57:41;;;;;;;8.43;4.78;;;15.30;99.90;;;;;;5090888;28;20046;-69
2022/05/23 05:00:11;;;;;;;8.93;3.97;;;15.40;99.90;;;;;;5095498;28;20043;-69
2022/05/23 05:02:37;;;;;;;10.13;4.60;;;15.40;99.90;;;;;;5094804;28;20032;-69
2022/05/23 05:05:04;;;;;;;10.43;4.20;;;15.50;99.90;;;;;;5097315;28;20064;-68
2022/05/23 05:07:30;;;;;;;8.60;4.57;;;15.50;99.90;;;;;;5095682;28;20384;-69
2022/05/23 05:09:56;;;;;;;9.65;4.15;;;15.50;99.90;;;;;;5090307;28;20082;-69
2022/05/23 05:12:22;;;;;;;10.35;4.60;;;15.60;99.90;;;;;;5090363;28;20055;-69
2022/05/23 05:14:47;;;;;;;8.10;4.78;;;15.60;99.90;;;;;;5098491;28;20047;-69
2022/05/23 05:17:13;;;;;;;7.72;4.90;;;15.70;99.90;;;;;;5108468;28;20486;-70
2022/05/23 05:19:39;;;;;;;7.30;4.80;;;15.70;99.90;;;;;;5088523;28;20047;-71
2022/05/23 05:22:04;;;;;;;7.28;4.50;;;15.70;99.90;;;;;;5089390;28;20036;-70
2022/05/23 05:24:32;;;;;;;9.55;4.85;;;15.70;99.90;;;;;;5096834;28;20043;-68
2022/05/23 05:27:00;;;;;;;8.73;4.82;;;15.70;99.90;;;;;;5089053;28;20036;-69
2022/05/23 05:29:26;;;;;;;9.27;5.38;;;15.70;99.90;;;;;;5102739;28;20040;-69
2022/05/23 05:32:00;;;;;;;9.20;5.03;;;15.80;99.90;;;;;;5090474;28;20491;-67
2022/05/23 05:34:52;;;;;;;10.68;5.32;;;15.80;99.90;;;;;;5095872;28;20042;-67
2022/05/23 05:37:24;;;;;;;10.48;5.28;;;15.80;99.90;;;;;;5080110;28;20067;-68
2022/05/23 05:39:52;;;;;;;10.55;4.85;;;15.80;99.90;;;;;;5106712;28;20542;-68
2022/05/23 05:42:22;;;;;;;10.18;5.28;;;15.90;99.90;;;;;;5086216;28;20142;-68
2022/05/23 05:44:54;;;;;;;8.57;5.38;;;16.00;99.90;;;;;;5086947;28;20044;-68
2022/05/23 05:47:20;;;;;;;10.95;5.85;;;16.10;99.90;;;;;;5087945;28;20104;-69
2022/05/23 05:49:50;;;;;;;8.98;5.10;;;16.20;99.90;;;;;;5088864;28;20044;-69
2022/05/23 05:52:18;;;;;;;8.57;5.22;;;16.30;99.90;;;;;;5088314;28;20051;-69
2022/05/23 05:54:45;;;;;;;8.80;5.50;;;16.50;99.90;;;;;;5093475;28;20097;-69
2022/05/23 05:57:13;;;;;;;9.40;6.03;;;16.50;99.90;;;;;;5105861;28;20098;-69
2022/05/23 05:59:39;;;;;;;10.02;5.35;;;16.60;99.90;;;;;;5098171;28;20040;-68
2022/05/23 06:02:08;;;;;;;9.63;5.30;;;16.70;99.90;;;;;;5099396;28;20043;-69
2022/05/23 06:04:35;;;;;;;7.78;5.50;;;16.70;99.90;;;;;;5108595;28;20043;-69
2022/05/23 06:12:32;;;;;;;9.77;5.88;;;16.90;99.90;;;;;;5087510;28;20467;-69
2022/05/23 06:14:58;;;;;;;13.82;6.20;;;16.90;99.90;;;;;;5087336;28;20047;-69
2022/05/23 06:17:24;;;;;;;9.25;5.60;;;17.00;99.90;;;;;;5097839;28;20571;-69
2022/05/23 06:19:49;;;;;;;12.55;6.10;;;17.00;99.90;;;;;;5109046;28;20079;-69
2022/05/23 06:22:17;;;;;;;8.77;5.28;;;17.10;99.90;;;;;;5090787;28;20051;-69
2022/05/23 06:24:44;;;;;;;8.40;5.90;;;17.20;99.90;;;;;;5105707;28;20050;-69
2022/05/23 06:27:10;;;;;;;11.02;5.78;;;17.30;99.90;;;;;;5104913;28;20069;-69
2022/05/23 06:29:41;;;;;;;10.02;6.13;;;17.40;99.90;;;;;;5088642;28;20646;-69
2022/05/23 06:32:07;;;;;;;10.80;5.82;;;17.50;99.90;;;;;;5087883;28;20507;-69
2022/05/23 06:34:33;;;;;;;9.70;5.80;;;17.60;99.90;;;;;;5086272;28;20430;-69
2022/05/23 06:36:59;;;;;;;10.25;5.70;;;17.70;99.90;;;;;;5104174;28;20055;-69
2022/05/23 06:39:25;;;;;;;11.15;5.95;;;17.70;99.90;;;;;;5109133;28;20149;-69
2022/05/23 06:41:52;;;;;;;9.25;5.50;;;17.80;99.90;;;;;;5102337;28;20047;-69
2022/05/23 06:44:17;;;;;;;8.85;5.72;;;17.90;99.90;;;;;;5104557;28;20143;-69
2022/05/23 06:46:43;;;;;;;8.75;5.70;;;18.00;99.90;;;;;;5106479;28;20126;-69
2022/05/23 06:49:09;;;;;;;9.15;5.45;;;18.10;99.90;;;;;;5102240;28;20120;-69
2022/05/23 06:51:35;;;;;;;11.27;5.82;;;18.20;99.90;;;;;;5107211;28;20044;-69
2022/05/23 06:54:01;;;;;;;9.70;6.28;;;18.20;99.90;;;;;;5098648;28;20079;-69
2022/05/23 06:56:28;;;;;;;8.90;5.53;;;18.30;99.90;;;;;;5089463;28;20084;-68
2022/05/23 06:58:56;;;;;;;8.80;5.65;;;18.30;99.90;;;;;;5108280;28;20038;-71
2022/05/23 07:01:22;;;;;;;10.73;5.57;;;18.40;99.90;;;;;;5102172;28;20414;-72
2022/05/23 07:03:48;;;;;;;9.55;5.63;;;18.40;99.90;;;;;;5085994;28;20044;-72
2022/05/23 07:14:31;;;;;;;11.02;5.90;;;18.60;99.90;;;;;;5108981;28;20047;-71
2022/05/23 07:16:59;;;;;;;10.93;6.05;;;18.80;99.90;;;;;;5107376;28;20062;-70
2022/05/23 07:19:26;;;;;;;8.55;5.20;;;18.80;99.90;;;;;;5096684;28;20044;-71
2022/05/23 07:21:51;;;;;;;11.45;5.53;;;18.90;99.90;;;;;;5089170;28;20040;-70
2022/05/23 07:24:17;;;;;;;8.60;5.63;;;19.00;99.90;;;;;;5086285;28;20071;-71
2022/05/23 07:26:43;;;;;;;11.50;5.75;;;19.10;99.90;;;;;;5087070;28;20043;-71
2022/05/23 07:29:09;;;;;;;9.63;5.47;;;19.20;99.90;;;;;;5098521;28;20054;-71
2022/05/23 07:31:34;;;;;;;10.98;5.57;;;19.20;99.90;;;;;;5107895;28;20065;-70
2022/05/23 07:34:01;;;;;;;9.07;5.07;;;19.30;99.90;;;;;;5107063;28;20043;-70
2022/05/23 07:36:27;;;;;;;10.18;5.43;;;19.30;99.90;;;;;;5110423;28;20153;-70
2022/05/23 07:38:52;;;;;;;9.82;5.70;;;19.40;99.90;;;;;;5106299;28;20075;-69
2022/05/23 07:41:18;;;;;;;12.68;5.45;;;19.50;99.90;;;;;;5109422;28;20063;-69
2022/05/23 07:43:43;;;;;;;10.05;5.70;;;19.50;99.90;;;;;;5091904;28;20315;-70
2022/05/23 07:46:13;;;;;;;8.07;5.45;;;19.60;99.90;;;;;;5092656;28;20052;-69
2022/05/23 07:48:45;;;;;;;9.35;5.80;;;19.70;99.90;;;;;;5090319;28;20044;-70
2022/05/23 07:51:12;;;;;;;10.90;5.60;;;19.70;99.90;;;;;;5092340;28;20040;-70
2022/05/23 08:01:51;;;;;;;9.93;5.43;;;20.00;99.90;;;;;;5090054;28;20086;-71
2022/05/23 08:04:17;;;;;;;10.98;5.43;;;20.10;99.90;;;;;;5079903;28;20152;-72
2022/05/23 08:06:43;;;;;;;8.98;5.35;;;20.10;99.90;;;;;;5090797;28;20040;-71
2022/05/23 08:09:09;;;;;;;7.47;5.05;;;20.20;99.90;;;;;;5091698;28;20059;-72
2022/05/23 08:11:38;;;;;;;10.75;5.80;;;20.30;99.90;;;;;;5093144;28;20101;-72
2022/05/23 08:14:04;;;;;;;8.50;5.18;;;20.40;99.90;;;;;;5091853;28;20475;-72
2022/05/23 08:16:30;;;;;;;10.02;5.28;;;20.50;99.90;;;;;;5090645;28;20040;-72
2022/05/23 08:18:58;;;;;;;10.60;5.10;;;20.60;99.90;;;;;;5091884;28;20074;-71
2022/05/23 08:21:24;;;;;;;10.57;5.20;;;20.70;99.90;;;;;;5097062;28;20048;-68
2022/05/23 08:23:50;;;;;;;7.60;5.05;;;20.70;99.90;;;;;;5091461;28;20039;-70
2022/05/23 08:26:16;;;;;;;8.88;5.28;;;20.90;99.90;;;;;;5091228;28;20044;-71
2022/05/23 08:28:42;;;;;;;8.18;5.20;;;21.00;99.90;;;;;;5089194;28;20032;-71
2022/05/23 08:31:08;;;;;;;10.40;5.47;;;21.00;99.90;;;;;;5090949;28;20083;-71
2022/05/23 08:33:33;;;;;;;8.52;4.60;;;21.00;99.90;;;;;;5090765;28;20064;-70
2022/05/23 08:35:59;;;;;;;8.52;5.03;;;21.00;99.90;;;;;;5097201;28;20123;-71
2022/05/23 08:38:25;;;;;;;10.38;4.80;;;21.00;99.90;;;;;;5095591;28;20046;-71
2022/05/23 08:41:08;;;;;;;8.05;4.57;;;21.00;99.90;;;;;;5112128;28;20540;-70
2022/05/23 08:43:45;;;;;;;9.85;4.95;;;21.10;99.90;;;;;;5099149;28;20573;-73
2022/05/23 08:46:34;;;;;;;9.73;4.63;;;21.20;99.90;;;;;;5112011;28;20047;-71
2022/05/23 08:49:09;;;;;;;7.43;4.22;;;21.20;99.90;;;;;;5110886;28;20099;-71
2022/05/23 08:51:51;;;;;;;7.30;4.32;;;21.40;99.90;;;;;;5090723;28;20043;-69
2022/05/23 08:54:24;;;;;;;7.05;4.40;;;21.40;99.90;;;;;;5091035;28;20688;-69
2022/05/23 08:56:53;;;;;;;6.50;3.95;;;21.60;99.90;;;;;;5110751;28;20080;-69
2022/05/23 08:59:34;;;;;;;6.68;3.80;;;21.70;99.90;;;;;;5110113;28;20690;-69
2022/05/23 09:02:06;;;;;;;8.75;3.85;;;21.80;99.90;;;;;;5094360;28;20488;-69
2022/05/23 09:04:42;;;;;;;7.63;3.97;;;21.90;99.90;;;;;;5090840;28;20098;-70
2022/05/23 09:07:13;;;;;;;6.32;4.10;;;22.00;99.90;;;;;;5090194;28;20392;-70
2022/05/23 09:09:39;;;;;;;7.35;4.22;;;22.10;99.90;;;;;;5085584;28;20051;-71
2022/05/23 09:12:11;;;;;;;8.73;3.78;;;22.20;99.90;;;;;;5110434;28;20063;-71
2022/05/23 09:14:37;;;;;;;7.70;3.67;;;22.30;99.90;;;;;;5107014;28;20052;-70
2022/05/23 09:17:09;;;;;;;4.50;3.60;;;22.40;99.90;;;;;;5094312;28;20373;-71
2022/05/23 09:19:38;;;;;;;8.00;3.70;;;22.50;99.90;;;;;;5091759;28;20053;-71
2022/05/23 09:22:14;;;;;;;7.05;3.63;;;22.60;99.90;;;;;;5088346;28;20395;-71
2022/05/23 09:24:42;;;;;;;5.63;3.83;;;22.70;99.90;;;;;;5098475;28;20425;-71
2022/05/23 09:27:35;;;;;;;7.78;3.22;;;22.80;99.90;;;;;;5105853;28;20339;-74
2022/05/23 09:30:02;;;;;;;7.55;3.58;;;22.90;99.90;;;;;;5069795;28;20040;-74
2022/05/23 09:32:35;;;;;;;7.30;3.60;;;22.90;99.70;;;;;;5089034;28;20048;-73
2022/05/23 09:35:06;;;;;;;7.25;3.67;;;23.00;99.90;;;;;;5091587;28;20036;-74
2022/05/23 09:37:35;;;;;;;7.20;3.42;;;23.10;99.90;;;;;;5091756;28;20535;-73
2022/05/23 09:40:03;;;;;;;6.43;3.10;;;23.30;99.90;;;;;;5104190;28;20035;-72
2022/05/23 09:48:19;;;;;;;7.10;3.10;;;23.60;96.90;;;;;;5085333;28;20099;-74
2022/05/23 09:50:54;;;;;;;4.25;3.25;;;23.50;96.70;;;;;;5103632;27;20031;-70
2022/05/23 09:53:32;;;;;;;7.85;3.20;;;23.40;96.20;;;;;;5104334;28;20051;-71
2022/05/23 09:56:37;;;;;;;5.57;3.08;;;23.40;95.40;;;;;;5105100;28;20091;-70
2022/05/23 09:59:07;;;;;;;7.95;2.90;;;23.50;95.50;;;;;;5088095;28;20043;-71
2022/05/23 10:01:33;;;;;;;5.07;2.78;;;23.60;96.70;;;;;;5103361;28;20086;-70
2022/05/23 10:04:00;;;;;;;5.23;2.70;;;23.70;94.90;;;;;;5096347;28;20047;-69
2022/05/23 10:06:42;;;;;;;7.18;2.72;;;23.80;93.70;;;;;;5068161;28;20814;-69
2022/05/23 10:09:21;;;;;;;7.22;2.80;;;23.90;93.90;;;;;;5085961;28;20064;-69
2022/05/23 10:11:53;;;;;;;4.45;2.67;;;24.00;92.70;;;;;;5107728;28;20050;-69
2022/05/23 10:14:19;;;;;;;5.00;2.58;;;24.00;96.80;;;;;;5100695;28;20048;-69
2022/05/23 10:16:49;;;;;;;7.80;3.00;;;24.00;93.80;;;;;;5089273;28;20121;-71
2022/05/23 10:19:31;;;;;;;10.02;3.42;;;24.00;92.90;;;;;;5102243;28;20134;-70
2022/05/23 10:22:26;;;;;;;4.75;2.70;;;24.00;94.00;;;;;;5097905;28;20102;-71
2022/05/23 10:24:56;;;;;;;5.55;3.10;;;24.20;95.50;;;;;;5086393;28;20074;-70
2022/05/23 10:28:06;;;;;;;8.32;3.20;;;24.30;95.60;;;;;;5086409;28;20040;-70
2022/05/23 10:30:34;;;;;;;6.20;2.80;;;24.40;96.70;;;;;;5085271;28;20080;-69
2022/05/23 10:33:09;;;;;;;5.18;2.58;;;24.50;97.10;;;;;;5106301;28;20194;-71
2022/05/23 10:35:51;;;;;;;8.07;2.97;;;24.60;93.00;;;;;;5109250;28;20092;-70
2022/05/23 10:44:43;;;;;;;3.75;2.28;;;24.80;91.00;;;;;;5102436;28;20056;-69
2022/05/23 10:47:36;;;;;;;5.18;2.22;;;24.80;88.30;;;;;;5090023;28;20074;-68
2022/05/23 10:50:18;;;;;;;9.75;2.63;;;24.90;91.40;;;;;;5089146;28;20078;-69
2022/05/23 10:52:47;;;;;;;4.50;2.58;;;24.90;81.90;;;;;;5092570;28;20486;-69
2022/05/23 10:55:38;;;;;;;5.05;2.90;;;25.00;90.60;;;;;;5099228;28;20056;-70
2022/05/23 10:58:36;;;;;;;6.18;2.90;;;25.10;91.50;;;;;;5103631;28;20052;-69
2022/05/23 11:01:01;;;;;;;4.75;2.60;;;25.20;81.50;;;;;;5096226;28;20493;-70
2022/05/23 11:03:43;;;;;;;5.25;2.65;;;25.20;81.40;;;;;;5103200;28;20089;-69
2022/05/23 11:06:21;;;;;;;6.25;2.80;;;25.20;86.20;;;;;;5106295;28;20044;-70
2022/05/23 11:09:10;;;;;;;7.82;3.10;;;25.20;82.90;;;;;;5101946;28;20463;-71
2022/05/23 11:12:14;;;;;;;5.00;2.92;;;25.30;84.90;;;;;;5088428;28;20377;-71
2022/05/23 11:15:19;;;;;;;6.15;3.00;;;25.30;85.60;;;;;;5092982;28;20044;-71
2022/05/23 11:17:52;;;;;;;9.10;3.60;;;25.40;87.40;;;;;;5093076;28;20098;-70
2022/05/23 11:20:26;;;;;;;4.85;2.75;;;25.50;85.10;;;;;;5088313;28;20582;-70
2022/05/23 11:23:02;;;;;;;5.85;2.50;;;25.60;90.20;;;;;;5089959;28;20131;-70
2022/05/23 11:25:27;;;;;;;9.85;2.75;;;25.80;89.10;;;;;;5112175;28;20048;-70
2022/05/23 11:33:50;;;;;;;6.03;2.65;;;26.10;84.80;;;;;;5090637;28;20059;-70
2022/05/23 11:36:24;;;;;;;3.97;2.25;;;26.30;78.30;;;;;;5092631;28;20050;-70
2022/05/23 11:38:52;;;;;;;6.30;2.95;;;26.20;74.40;;;;;;5091964;28;20475;-70
2022/05/23 11:41:41;;;;;;;5.32;2.40;;;26.20;76.20;;;;;;5100779;28;20044;-70
2022/05/23 11:44:42;;;;;;;7.18;2.70;;;26.20;82.50;;;;;;5082648;28;20060;-69
2022/05/23 11:47:18;;;;;;;7.03;2.80;;;26.40;86.50;;;;;;5091936;28;20035;-69
2022/05/23 11:49:48;;;;;;;8.80;3.13;;;26.50;79.30;;;;;;5071737;28;20041;-70
2022/05/23 11:52:41;;;;;;;5.72;2.72;;;26.60;79.10;;;;;;5072142;28;20052;-70
2022/05/23 11:55:31;;;;;;;4.90;2.97;;;26.70;85.10;;;;;;5085264;28;20127;-72
2022/05/23 11:58:18;;;;;;;5.25;3.03;;;26.80;75.60;;;;;;5076648;28;20044;-71
2022/05/23 12:01:00;;;;;;;6.05;3.10;;;26.90;74.90;;;;;;5102450;28;20028;-71
2022/05/23 12:03:25;;;;;;;6.57;3.10;;;27.00;67.40;;;;;;5084570;28;20045;-71
2022/05/23 12:06:23;;;;;;;7.03;2.90;;;27.00;71.50;;;;;;5111018;28;20039;-73
2022/05/23 12:09:12;;;;;;;7.50;3.08;;;27.10;81.90;;;;;;5107209;28;20036;-70
2022/05/23 12:11:43;;;;;;;6.45;2.92;;;27.30;78.00;;;;;;5093804;28;20063;-71
2022/05/23 12:14:25;;;;;;;5.65;3.25;;;27.30;69.20;;;;;;5091458;28;20044;-69
2022/05/23 12:17:05;;;;;;;9.63;3.10;;;27.30;71.70;;;;;;5094888;28;20067;-69
2022/05/23 12:19:39;;;;;;;5.95;3.33;;;27.40;70.80;;;;;;5109774;28;20079;-74
2022/05/23 12:22:27;;;;;;;10.13;3.35;;;27.30;68.60;;;;;;5110547;28;20043;-73
2022/05/23 12:25:07;;;;;;;7.30;3.28;;;27.10;75.30;;;;;;5103704;28;20048;-71
2022/05/23 12:27:40;;;;;;;4.82;2.50;;;27.10;79.80;;;;;;5103230;28;20043;-72
2022/05/23 12:30:17;;;;;;;5.15;2.72;;;27.10;80.40;;;;;;5107292;27;20032;-72
2022/05/23 12:32:47;;;;;;;6.45;3.00;;;27.10;69.90;;;;;;5111476;28;20054;-73
2022/05/23 12:35:15;;;;;;;6.78;2.90;;;27.10;72.40;;;;;;5111401;28;20051;-74
2022/05/23 12:37:47;;;;;;;7.38;3.00;;;27.00;74.80;;;;;;5103309;27;20035;-71
2022/05/23 12:40:24;;;;;;;5.20;2.45;;;26.90;78.70;;;;;;5111311;28;20043;-74
2022/05/23 12:43:23;;;;;;;6.15;2.45;;;26.90;76.40;;;;;;5110743;28;20043;-74
2022/05/23 12:46:12;;;;;;;6.05;2.08;;;26.80;74.60;;;;;;5111476;28;20043;-75
2022/05/23 12:49:01;;;;;;;4.43;2.20;;;26.70;78.90;;;;;;5094821;28;20487;-74
2022/05/23 12:51:59;;;;;;;6.70;2.47;;;26.70;70.50;;;;;;5091404;28;20044;-73
2022/05/23 12:54:53;;;;;;;7.55;2.60;;;26.70;68.10;;;;;;5089796;28;20076;-71
2022/05/23 12:57:49;;;;;;;6.60;2.60;;;26.70;68.60;;;;;;5087766;28;20425;-73
2022/05/23 13:00:21;;;;;;;3.95;2.78;;;26.70;66.00;;;;;;5068789;28;20049;-72
2022/05/23 13:03:10;;;;;;;4.93;2.97;;;26.80;66.20;;;;;;5070852;28;20445;-72
2022/05/23 13:05:46;;;;;;;5.40;2.75;;;26.70;66.20;;;;;;5068414;28;20545;-71
2022/05/23 13:08:27;;;;;;;6.43;2.88;;;26.60;69.00;;;;;;5076055;28;20053;-72
2022/05/23 13:11:03;;;;;;;7.65;4.35;;;26.50;69.20;;;;;;5110401;28;20038;-75
2022/05/23 13:13:41;;;;;;;5.00;2.78;;;26.40;70.80;;;;;;5091644;28;20037;-74
2022/05/23 13:16:26;;;;;;;6.93;3.42;;;26.40;74.50;;;;;;5090027;28;20054;-72
2022/05/23 13:27:13;;;;;;;10.75;6.00;;;26.10;76.40;;;;;;5085694;28;20510;-73
2022/05/23 13:29:39;;;;;;;12.43;8.93;;;26.10;80.00;;;;;;5108632;28;20058;-76
2022/05/23 13:32:11;;;;;;;16.17;14.23;;;26.10;82.70;;;;;;5106958;28;20031;-74
2022/05/23 13:34:40;;;;;;;9.55;6.10;;;26.00;76.10;;;;;;5105352;28;20051;-77
2022/05/23 13:37:07;;;;;;;7.07;3.35;;;25.90;73.30;;;;;;5102817;28;20043;-75
2022/05/23 13:39:42;;;;;;;4.90;3.28;;;25.90;73.40;;;;;;5091011;28;20191;-73
2022/05/23 13:42:23;;;;;;;5.82;3.00;;;25.80;73.50;;;;;;5096370;28;20114;-76
2022/05/23 13:44:49;;;;;;;7.85;3.55;;;25.80;79.20;;;;;;5089426;28;20600;-73
2022/05/23 13:47:26;;;;;;;6.38;3.42;;;25.80;81.30;;;;;;5097260;28;20047;-73
2022/05/23 13:50:01;;;;;;;8.07;3.20;;;25.80;81.30;;;;;;5081263;28;20460;-72
2022/05/23 13:52:33;;;;;;;6.95;2.95;;;25.80;80.80;;;;;;5073721;28;20037;-71
2022/05/23 13:55:07;;;;;;;6.55;3.35;;;25.70;86.30;;;;;;5076681;28;20124;-71
2022/05/23 13:57:39;;;;;;;8.82;3.10;;;25.70;84.30;;;;;;5078404;28;20044;-72
2022/05/23 14:00:14;;;;;;;6.20;3.60;;;25.60;83.50;;;;;;5075400;28;20364;-71
2022/05/23 14:02:55;;;;;;;6.68;3.53;;;25.70;87.80;;;;;;5067576;28;20098;-73
2022/05/23 14:05:22;;;;;;;6.20;3.55;;;25.70;89.20;;;;;;5082632;28;20050;-73
2022/05/23 14:07:49;;;;;;;6.63;3.72;;;25.70;88.60;;;;;;5104029;28;20128;-70
2022/05/23 14:10:22;;;;;;;;;;;25.80;91.40;;;;;;5102611;28;20039;-72